createdAt,value
2019-02-11T00:01:40.129Z,84.07
2019-02-11T00:04:08.401Z,86.05
2019-02-11T00:06:36.682Z,87.10
2019-02-11T00:09:07.565Z,86.87
2019-02-11T00:11:35.868Z,86.38
2019-02-11T00:14:04.136Z,85.44
2019-02-11T00:16:32.443Z,87.03
2019-02-11T00:19:00.707Z,88.32
2019-02-11T00:21:28.979Z,89.54
2019-02-11T00:23:57.248Z,87.92
2019-02-11T00:26:25.524Z,88.96
2019-02-11T00:28:53.813Z,86.08
2019-02-11T00:31:22.139Z,88.60
2019-02-11T00:33:50.444Z,87.48
2019-02-11T00:36:18.775Z,87.60
2019-02-11T00:38:47.044Z,86.96
2019-02-11T00:41:15.311Z,88.26
2019-02-11T00:43:43.562Z,87.66
2019-02-11T00:46:11.859Z,88.46
2019-02-11T00:48:40.144Z,88.66
2019-02-11T00:51:08.452Z,82.82
2019-02-11T00:53:36.712Z,85.50
2019-02-11T00:56:04.967Z,85.02
2019-02-11T00:58:33.240Z,85.35
2019-02-11T01:01:01.565Z,86.79
2019-02-11T01:03:29.850Z,89.55
2019-02-11T01:05:58.171Z,87.95
2019-02-11T01:08:26.435Z,88.65
2019-02-11T01:10:54.712Z,88.87
2019-02-11T01:13:27.856Z,89.31
2019-02-11T01:15:52.991Z,89.18
2019-02-11T01:18:21.267Z,91.26
2019-02-11T01:20:49.583Z,93.82
2019-02-11T01:23:17.844Z,93.87
2019-02-11T01:25:46.106Z,94.73
2019-02-11T01:28:14.376Z,94.42
2019-02-11T01:30:42.639Z,94.82
2019-02-11T01:33:10.920Z,95.78
2019-02-11T01:35:39.175Z,94.55
2019-02-11T01:38:07.450Z,95.41
2019-02-11T01:40:35.742Z,95.70
2019-02-11T01:43:04.071Z,97.30
2019-02-11T01:45:32.341Z,97.39
2019-02-11T01:48:00.600Z,98.93
2019-02-11T01:50:28.951Z,99.24
2019-02-11T01:52:57.219Z,100.00
2019-02-11T01:55:25.494Z,100.00
2019-02-11T01:57:53.789Z,100.00
2019-02-11T02:00:22.080Z,100.00
2019-02-11T02:02:50.341Z,100.00
2019-02-11T02:05:18.601Z,100.00
2019-02-11T02:07:46.870Z,100.00
2019-02-11T02:10:15.415Z,100.00
2019-02-11T02:12:43.770Z,100.00
2019-02-11T02:15:14.496Z,100.00
2019-02-11T02:17:42.752Z,100.00
2019-02-11T02:20:13.675Z,100.00
2019-02-11T02:22:41.985Z,100.00
2019-02-11T02:25:11.851Z,100.00
2019-02-11T02:27:40.104Z,100.00
2019-02-11T02:30:11.428Z,100.00
2019-02-11T02:32:39.675Z,100.00
2019-02-11T02:35:07.967Z,100.00
2019-02-11T02:37:36.254Z,100.00
2019-02-11T02:40:07.160Z,100.00
2019-02-11T02:42:35.428Z,100.00
2019-02-11T02:45:04.468Z,100.00
2019-02-11T02:47:32.758Z,100.00
2019-02-11T02:50:01.033Z,100.00
2019-02-11T02:52:29.286Z,100.00
2019-02-11T02:54:57.548Z,100.00
2019-02-11T02:57:25.869Z,100.00
2019-02-11T02:59:54.128Z,100.00
2019-02-11T03:02:22.411Z,100.00
2019-02-11T03:04:50.676Z,100.00
2019-02-11T03:07:18.941Z,100.00
2019-02-11T03:09:47.206Z,100.00
2019-02-11T03:12:15.505Z,100.00
2019-02-11T03:14:43.767Z,100.00
2019-02-11T03:17:12.042Z,100.00
2019-02-11T03:19:40.304Z,100.00
2019-02-11T03:22:08.654Z,100.00
2019-02-11T03:24:36.931Z,100.00
2019-02-11T03:27:05.194Z,100.00
2019-02-11T03:29:33.457Z,100.00
2019-02-11T03:32:01.744Z,100.00
2019-02-11T03:34:30.008Z,100.00
2019-02-11T03:36:58.292Z,100.00
2019-02-11T03:39:26.556Z,100.00
2019-02-11T03:41:54.827Z,100.00
2019-02-11T03:44:23.082Z,100.00
2019-02-11T03:46:51.364Z,100.00
2019-02-11T03:49:19.645Z,100.00
2019-02-11T03:51:47.919Z,100.00
2019-02-11T03:54:16.196Z,100.00
2019-02-11T03:56:44.532Z,100.00
2019-02-11T03:59:12.888Z,100.00
2019-02-11T04:01:41.152Z,100.00
2019-02-11T04:04:09.535Z,100.00
2019-02-11T04:06:37.792Z,100.00
2019-02-11T04:09:06.637Z,100.00
2019-02-11T04:11:37.573Z,100.00
2019-02-11T04:14:05.841Z,99.24
2019-02-11T04:16:34.104Z,99.17
2019-02-11T04:19:02.481Z,99.96
2019-02-11T04:21:30.814Z,100.00
2019-02-11T04:23:59.054Z,100.00
2019-02-11T04:26:27.387Z,99.65
2019-02-11T04:28:55.659Z,99.72
2019-02-11T04:31:23.918Z,100.00
2019-02-11T04:33:52.206Z,99.44
2019-02-11T04:36:20.553Z,99.80
2019-02-11T04:38:48.800Z,98.88
2019-02-11T04:41:20.057Z,99.63
2019-02-11T04:43:48.310Z,97.85
2019-02-11T04:46:16.579Z,95.01
2019-02-11T04:48:44.834Z,97.79
2019-02-11T04:51:13.103Z,95.53
2019-02-11T04:53:41.362Z,96.50
2019-02-11T04:56:09.626Z,95.29
2019-02-11T04:58:37.889Z,94.41
2019-02-11T05:01:06.146Z,96.04
2019-02-11T05:03:34.408Z,95.37
2019-02-11T05:06:02.673Z,95.83
2019-02-11T05:08:30.932Z,94.54
2019-02-11T05:10:59.206Z,95.53
2019-02-11T05:13:27.533Z,95.36
2019-02-11T05:15:55.795Z,93.67
2019-02-11T05:18:24.057Z,95.41
2019-02-11T05:20:52.329Z,94.50
2019-02-11T05:23:20.592Z,96.71
2019-02-11T05:25:48.888Z,94.55
2019-02-11T05:28:17.143Z,95.35
2019-02-11T05:30:45.408Z,96.23
2019-02-11T05:33:13.717Z,96.63
2019-02-11T05:35:41.963Z,93.87
2019-02-11T05:38:10.247Z,95.24
2019-02-11T05:40:38.508Z,93.55
2019-02-11T05:43:06.844Z,94.68
2019-02-11T05:45:35.100Z,95.70
2019-02-11T05:48:03.418Z,95.33
2019-02-11T05:50:31.690Z,93.98
2019-02-11T05:52:59.934Z,93.87
2019-02-11T05:55:28.205Z,94.51
2019-02-11T05:57:56.475Z,94.06
2019-02-11T06:00:24.746Z,93.04
2019-02-11T06:02:52.991Z,93.41
2019-02-11T06:05:21.269Z,91.47
2019-02-11T06:07:49.537Z,92.76
2019-02-11T06:10:17.798Z,92.94
2019-02-11T06:12:46.052Z,93.11
2019-02-11T06:15:14.333Z,93.43
2019-02-11T06:17:42.592Z,93.84
2019-02-11T06:20:10.913Z,92.48
2019-02-11T06:22:39.189Z,92.18
2019-02-11T06:25:08.310Z,93.44
2019-02-11T06:27:36.539Z,93.68
2019-02-11T06:30:29.692Z,91.97
2019-02-11T06:32:57.948Z,92.10
2019-02-11T06:35:26.215Z,90.57
2019-02-11T06:37:54.514Z,89.57
2019-02-11T06:40:22.761Z,90.02
2019-02-11T06:42:50.999Z,88.85
2019-02-11T06:45:19.255Z,91.44
2019-02-11T06:47:47.530Z,89.14
2019-02-11T06:50:16.415Z,90.41
2019-02-11T06:52:44.690Z,90.44
2019-02-11T06:55:13.019Z,89.00
2019-02-11T06:57:41.278Z,92.24
2019-02-11T07:00:12.497Z,92.34
2019-02-11T07:02:40.770Z,89.19
2019-02-11T07:05:09.092Z,88.73
2019-02-11T07:07:37.371Z,90.02
2019-02-11T07:10:13.046Z,92.25
2019-02-11T07:12:41.346Z,92.96
2019-02-11T07:15:21.547Z,89.91
2019-02-11T07:17:43.842Z,88.94
2019-02-11T07:20:12.158Z,90.20
2019-02-11T07:22:40.425Z,87.30
2019-02-11T07:25:09.477Z,89.62
2019-02-11T07:27:37.789Z,90.86
2019-02-11T07:30:13.744Z,89.95
2019-02-11T07:32:41.993Z,90.81
2019-02-11T07:35:10.338Z,87.64
2019-02-11T07:37:38.598Z,87.96
2019-02-11T07:40:10.263Z,87.96
2019-02-11T07:42:42.714Z,88.02
2019-02-11T07:45:13.000Z,86.84
2019-02-11T07:47:41.272Z,87.49
2019-02-11T07:50:09.605Z,86.99
2019-02-11T07:52:37.893Z,87.02
2019-02-11T07:55:06.306Z,88.01
2019-02-11T07:57:34.590Z,88.56
2019-02-11T08:00:02.885Z,86.71
2019-02-11T08:02:33.540Z,86.54
2019-02-11T08:05:01.812Z,86.12
2019-02-11T08:07:32.444Z,85.89
2019-02-11T08:10:02.937Z,85.92
2019-02-11T08:12:31.264Z,85.02
2019-02-11T08:14:59.530Z,87.45
2019-02-11T08:17:27.791Z,87.43
2019-02-11T08:19:56.070Z,85.75
2019-02-11T08:22:24.328Z,84.77
2019-02-11T08:24:52.626Z,85.14
2019-02-11T08:27:20.899Z,85.84
2019-02-11T08:29:49.143Z,87.26
2019-02-11T08:32:17.485Z,87.71
2019-02-11T08:34:45.736Z,87.39
2019-02-11T08:37:14.017Z,86.94
2019-02-11T08:39:42.263Z,87.22
2019-02-11T08:42:10.555Z,87.58
2019-02-11T08:44:38.804Z,85.94
2019-02-11T08:47:07.161Z,86.16
2019-02-11T08:49:35.436Z,86.86
2019-02-11T08:52:03.694Z,85.22
2019-02-11T08:54:31.968Z,82.74
2019-02-11T08:57:00.226Z,83.84
2019-02-11T08:59:28.528Z,82.28
2019-02-11T09:01:56.786Z,81.10
2019-02-11T09:04:25.061Z,82.05
2019-02-11T09:06:53.331Z,79.09
2019-02-11T09:09:21.596Z,80.95
2019-02-11T09:11:49.845Z,81.19
2019-02-11T09:14:18.177Z,80.10
2019-02-11T09:16:46.445Z,80.02
2019-02-11T09:19:14.690Z,80.99
2019-02-11T09:21:43.059Z,81.81
2019-02-11T09:24:11.324Z,82.37
2019-02-11T09:26:39.576Z,80.38
2019-02-11T09:29:07.845Z,81.85
2019-02-11T09:31:36.140Z,80.16
2019-02-11T09:34:04.464Z,80.50
2019-02-11T09:36:32.715Z,79.40
2019-02-11T09:39:01.002Z,81.71
2019-02-11T09:41:29.243Z,81.71
2019-02-11T09:43:57.577Z,81.57
2019-02-11T09:46:25.841Z,81.28
2019-02-11T09:48:54.190Z,80.28
2019-02-11T09:51:24.175Z,78.52
2019-02-11T09:53:52.470Z,79.52
2019-02-11T09:56:20.740Z,79.72
2019-02-11T09:58:49.041Z,80.48
2019-02-11T10:01:17.430Z,81.12
2019-02-11T10:03:45.686Z,81.00
2019-02-11T10:06:14.049Z,81.50
2019-02-11T10:08:42.324Z,80.31
2019-02-11T10:11:10.592Z,80.35
2019-02-11T10:13:38.927Z,79.59
2019-02-11T10:16:12.427Z,80.89
2019-02-11T10:18:37.224Z,78.41
2019-02-11T10:21:05.484Z,81.85
2019-02-11T10:23:33.781Z,79.01
2019-02-11T10:26:02.047Z,79.84
2019-02-11T10:28:30.800Z,79.74
2019-02-11T10:30:59.078Z,80.72
2019-02-11T10:33:27.356Z,80.43
2019-02-11T10:35:55.657Z,79.27
2019-02-11T10:38:23.913Z,79.08
2019-02-11T10:40:52.257Z,78.30
2019-02-11T10:43:20.524Z,78.44
2019-02-11T10:45:48.790Z,78.46
2019-02-11T10:48:17.051Z,78.20
2019-02-11T10:50:45.343Z,77.94
2019-02-11T10:53:13.602Z,78.31
2019-02-11T10:55:41.872Z,77.15
2019-02-11T10:58:10.131Z,77.60
2019-02-11T11:00:39.031Z,76.65
2019-02-11T11:03:07.326Z,76.03
2019-02-11T11:05:35.590Z,76.91
2019-02-11T11:08:03.911Z,75.74
2019-02-11T11:10:37.331Z,74.45
2019-02-11T11:13:05.631Z,74.99
2019-02-11T11:15:33.949Z,74.32
2019-02-11T11:18:02.201Z,74.14
2019-02-11T11:20:30.658Z,73.23
2019-02-11T11:22:58.929Z,75.51
2019-02-11T11:25:27.203Z,74.79
2019-02-11T11:27:55.481Z,74.88
2019-02-11T11:30:23.771Z,74.28
2019-02-11T11:32:52.074Z,73.54
2019-02-11T11:35:20.570Z,74.34
2019-02-11T11:37:48.833Z,73.02
2019-02-11T11:40:23.674Z,73.18
2019-02-11T11:42:52.003Z,72.81
2019-02-11T11:45:21.038Z,73.33
2019-02-11T11:47:49.272Z,72.88
2019-02-11T11:50:18.119Z,73.27
2019-02-11T11:52:46.370Z,72.88
2019-02-11T11:55:18.659Z,72.39
2019-02-11T11:57:46.897Z,72.51
2019-02-11T12:00:21.351Z,70.74
2019-02-11T12:03:01.817Z,74.51
2019-02-11T12:05:19.851Z,74.86
2019-02-11T12:07:48.187Z,74.08
2019-02-11T12:10:16.600Z,71.73
2019-02-11T12:12:44.969Z,70.38
2019-02-11T12:15:15.885Z,72.89
2019-02-11T12:17:45.601Z,71.75
2019-02-11T12:20:15.391Z,72.52
2019-02-11T12:22:45.526Z,71.90
2019-02-11T12:25:15.835Z,71.04
2019-02-11T12:27:44.090Z,70.19
2019-02-11T12:30:23.521Z,71.04
2019-02-11T12:32:55.027Z,70.29
2019-02-11T12:35:21.915Z,68.76
2019-02-11T12:37:50.713Z,70.22
2019-02-11T12:40:19.201Z,67.42
2019-02-11T12:42:47.561Z,67.53
2019-02-11T12:45:21.970Z,67.64
2019-02-11T12:47:50.323Z,67.99
2019-02-11T12:50:18.944Z,68.52
2019-02-11T12:52:47.377Z,68.00
2019-02-11T12:55:16.847Z,67.12
2019-02-11T12:57:45.117Z,66.40
2019-02-11T13:00:21.539Z,65.46
2019-02-11T13:02:49.946Z,63.88
2019-02-11T13:05:22.258Z,63.68
2019-02-11T13:07:48.649Z,66.46
2019-02-11T13:10:19.826Z,64.77
2019-02-11T13:12:48.096Z,63.50
2019-02-11T13:15:34.667Z,60.97
2019-02-11T13:17:47.587Z,57.82
2019-02-11T13:20:18.083Z,58.03
2019-02-11T13:22:46.507Z,56.00
2019-02-11T13:25:16.997Z,56.17
2019-02-11T13:27:45.337Z,54.68
2019-02-11T13:30:22.795Z,52.63
2019-02-11T13:32:51.043Z,52.18
2019-02-11T13:35:19.412Z,52.81
2019-02-11T13:37:47.655Z,50.51
2019-02-11T13:40:16.137Z,48.36
2019-02-11T13:42:44.642Z,51.16
2019-02-11T13:45:26.252Z,54.36
2019-02-11T13:48:01.837Z,56.11
2019-02-11T13:50:48.075Z,55.54
2019-02-11T13:53:24.742Z,56.25
2019-02-11T13:55:57.642Z,57.12
2019-02-11T13:58:41.238Z,57.07
2019-02-11T14:01:17.160Z,58.12
2019-02-11T14:03:54.917Z,58.49
2019-02-11T14:06:35.275Z,58.02
2019-02-11T14:09:13.890Z,58.77
2019-02-11T14:11:42.217Z,58.88
2019-02-11T14:14:21.299Z,58.90
2019-02-11T14:16:59.091Z,58.64
2019-02-11T14:19:41.934Z,58.81
2019-02-11T14:22:17.668Z,59.10
2019-02-11T14:24:52.880Z,58.81
2019-02-11T14:27:24.839Z,59.15
2019-02-11T14:30:06.709Z,58.75
2019-02-11T14:32:42.399Z,59.37
2019-02-11T14:35:27.405Z,60.13
2019-02-11T14:38:06.607Z,60.51
2019-02-11T14:40:43.863Z,60.24
2019-02-11T14:43:15.778Z,60.49
2019-02-11T14:45:50.976Z,60.52
2019-02-11T14:48:27.638Z,61.76
2019-02-11T14:50:57.247Z,61.49
2019-02-11T14:53:43.121Z,61.90
2019-02-11T14:56:33.977Z,60.63
2019-02-11T14:59:16.955Z,60.44
2019-02-11T15:01:49.347Z,61.92
2019-02-11T15:04:20.616Z,60.87
2019-02-11T15:07:11.100Z,61.58
2019-02-11T15:09:47.636Z,61.00
2019-02-11T15:12:27.292Z,61.76
2019-02-11T15:14:58.745Z,61.88
2019-02-11T15:17:37.142Z,61.29
2019-02-11T15:20:16.164Z,60.79
2019-02-11T15:22:51.875Z,60.85
2019-02-11T15:25:20.151Z,60.39
2019-02-11T15:27:53.065Z,61.28
2019-02-11T15:30:24.170Z,62.21
2019-02-11T15:33:01.841Z,62.10
2019-02-11T15:35:35.324Z,62.70
2019-02-11T15:38:13.785Z,62.34
2019-02-11T15:40:46.640Z,60.74
2019-02-11T15:43:30.824Z,60.12
2019-02-11T15:46:15.350Z,60.52
2019-02-11T15:48:53.888Z,60.39
2019-02-11T15:51:34.614Z,61.14
2019-02-11T15:54:08.253Z,62.52
2019-02-11T15:56:39.802Z,62.43
2019-02-11T15:59:17.868Z,62.65
2019-02-11T16:01:59.714Z,61.47
2019-02-11T16:04:34.314Z,63.20
2019-02-11T16:07:17.902Z,63.80
2019-02-11T16:09:53.352Z,64.29
2019-02-11T16:12:23.157Z,67.06
2019-02-11T16:14:54.733Z,67.84
2019-02-11T16:17:39.413Z,67.81
2019-02-11T16:20:14.608Z,66.68
2019-02-11T16:22:57.913Z,68.29
2019-02-11T16:25:26.259Z,68.29
2019-02-11T16:27:57.934Z,67.53
2019-02-11T16:30:35.295Z,68.17
2019-02-11T16:33:13.356Z,68.12
2019-02-11T16:35:58.129Z,68.43
2019-02-11T16:38:27.996Z,71.94
2019-02-11T16:41:06.745Z,75.06
2019-02-11T16:43:40.434Z,77.26
2019-02-11T16:46:19.125Z,81.04
2019-02-11T16:49:02.709Z,78.41
2019-02-11T16:51:40.341Z,79.09
2019-02-11T16:54:22.280Z,80.31
2019-02-11T16:56:59.181Z,80.00
2019-02-11T16:59:41.513Z,78.36
2019-02-11T17:02:09.008Z,78.55
2019-02-11T17:07:42.201Z,77.87
2019-02-11T17:10:24.382Z,78.45
2019-02-11T17:12:55.063Z,79.51
2019-02-11T17:15:50.736Z,83.07
2019-02-11T17:18:19.231Z,83.68
2019-02-11T17:24:46.625Z,84.78
2019-02-11T17:27:20.549Z,82.33
2019-02-11T17:29:53.592Z,83.52
2019-02-11T17:32:29.627Z,83.40
2019-02-11T17:35:06.473Z,82.43
2019-02-11T17:37:47.904Z,81.33
2019-02-11T17:40:21.211Z,83.33
2019-02-11T17:43:06.312Z,84.00
2019-02-11T17:45:43.747Z,83.68
2019-02-11T17:48:23.714Z,83.37
2019-02-11T17:50:55.174Z,80.60
2019-02-11T17:53:50.245Z,86.39
2019-02-11T17:56:29.850Z,86.42
2019-02-11T17:59:12.486Z,85.82
2019-02-11T18:01:59.335Z,86.23
2019-02-11T18:04:27.731Z,86.81
2019-02-11T18:07:01.365Z,86.13
2019-02-11T18:09:31.374Z,85.53
2019-02-11T18:12:07.971Z,84.60
2019-02-11T18:14:45.682Z,84.43
2019-02-11T18:17:22.192Z,80.87
2019-02-11T18:19:52.175Z,82.22
2019-02-11T18:22:21.994Z,82.55
2019-02-11T18:25:03.156Z,82.78
2019-02-11T18:27:39.663Z,80.58
2019-02-11T18:30:17.514Z,80.09
2019-02-11T18:32:50.185Z,78.41
2019-02-11T18:35:20.198Z,78.27
2019-02-11T18:37:53.542Z,80.38
2019-02-11T18:40:27.343Z,81.81
2019-02-11T18:42:59.486Z,83.93
2019-02-11T18:45:30.001Z,84.59
2019-02-11T18:48:03.036Z,81.76
2019-02-11T18:50:38.521Z,80.99
2019-02-11T18:53:21.315Z,84.52
2019-02-11T18:55:54.763Z,79.66
2019-02-11T18:58:30.503Z,78.55
2019-02-11T19:01:05.096Z,79.58
2019-02-11T19:03:41.971Z,76.81
2019-02-11T19:06:18.453Z,80.30
2019-02-11T19:08:53.984Z,80.00
2019-02-11T19:11:25.462Z,78.57
2019-02-11T19:14:00.408Z,80.03
2019-02-11T19:16:37.840Z,79.69
2019-02-11T19:19:20.453Z,82.05
2019-02-11T19:21:53.579Z,82.45
2019-02-11T19:27:59.153Z,81.55
2019-02-11T19:30:43.389Z,85.10
2019-02-11T19:33:08.841Z,83.87
2019-02-11T19:35:37.139Z,81.87
2019-02-11T19:41:11.762Z,80.47
2019-02-11T19:43:42.515Z,80.98
2019-02-11T19:46:18.142Z,78.17
2019-02-11T19:48:56.731Z,77.64
2019-02-11T19:51:28.892Z,77.87
2019-02-11T19:54:29.732Z,77.45
2019-02-11T19:57:16.936Z,78.33
2019-02-11T20:02:28.756Z,78.48
2019-02-11T20:05:01.271Z,77.78
2019-02-11T20:07:41.168Z,79.42
2019-02-11T20:10:25.875Z,78.84
2019-02-11T20:13:06.152Z,78.90
2019-02-11T20:15:33.055Z,80.37
2019-02-11T20:18:10.712Z,78.34
2019-02-11T20:20:46.949Z,78.84
2019-02-11T20:26:18.207Z,75.70
2019-02-11T20:28:48.116Z,77.42
2019-02-11T20:31:19.287Z,77.65
2019-02-11T20:34:07.950Z,77.72
2019-02-11T20:36:42.605Z,77.03
2019-02-11T20:39:13.849Z,77.30
2019-02-11T20:41:55.704Z,75.74
2019-02-11T20:44:23.708Z,75.90
2019-02-11T20:47:07.185Z,74.45
2019-02-11T20:49:41.898Z,76.20
2019-02-11T20:52:23.137Z,76.32
2019-02-11T20:54:59.571Z,75.82
2019-02-11T20:57:30.226Z,75.70
2019-02-11T21:00:05.059Z,74.64
2019-02-11T21:02:42.720Z,75.37
2019-02-11T21:05:18.478Z,74.71
2019-02-11T21:07:53.752Z,73.29
2019-02-11T21:10:25.262Z,71.49
2019-02-11T21:12:59.251Z,73.72
2019-02-11T21:15:37.927Z,72.28
2019-02-11T21:18:14.738Z,73.20
2019-02-11T21:20:51.228Z,75.44
2019-02-11T21:23:40.097Z,73.00
2019-02-11T21:26:03.602Z,73.83
2019-02-11T21:28:54.052Z,73.71
2019-02-11T21:31:40.167Z,71.76
2019-02-11T21:34:22.730Z,72.03
2019-02-11T21:37:00.214Z,73.34
2019-02-11T21:39:30.523Z,74.67
2019-02-11T21:42:09.569Z,74.07
2019-02-11T21:45:10.176Z,72.31
2019-02-11T21:47:15.852Z,72.12
2019-02-11T21:50:11.144Z,72.02
2019-02-11T21:52:47.650Z,71.16
2019-02-11T21:55:32.446Z,71.31
2019-02-11T21:58:03.915Z,73.93
2019-02-11T22:00:35.883Z,73.77
2019-02-11T22:03:05.843Z,74.86
2019-02-11T22:05:41.483Z,76.59
2019-02-11T22:08:25.306Z,74.03
2019-02-11T22:12:41.984Z,74.02
2019-02-11T22:13:52.369Z,72.50
2019-02-11T22:16:34.652Z,73.45
2019-02-11T22:19:15.692Z,73.46
2019-02-11T22:22:05.400Z,75.32
2019-02-11T22:24:39.726Z,76.88
2019-02-11T22:27:17.729Z,74.85
2019-02-11T22:29:53.307Z,76.14
2019-02-11T22:32:39.747Z,75.71
2019-02-11T22:35:11.606Z,76.41
2019-02-11T22:40:38.455Z,76.59
2019-02-11T22:43:11.574Z,76.09
2019-02-11T22:45:41.467Z,76.98
2019-02-11T22:48:16.038Z,75.81
2019-02-11T22:50:54.650Z,72.91
2019-02-11T22:53:27.637Z,75.08
2019-02-11T22:56:00.322Z,74.89
2019-02-11T22:58:38.996Z,79.69
2019-02-11T23:01:18.288Z,76.95
2019-02-11T23:03:53.792Z,77.24
2019-02-11T23:06:23.626Z,77.11
2019-02-11T23:09:17.357Z,77.13
2019-02-11T23:11:50.859Z,78.44
2019-02-11T23:14:29.052Z,77.92
2019-02-11T23:17:00.652Z,78.62
2019-02-11T23:19:30.517Z,79.61
2019-02-11T23:21:59.176Z,80.18
2019-02-11T23:24:27.647Z,78.88
2019-02-11T23:26:55.930Z,78.48
2019-02-11T23:29:24.292Z,78.69
2019-02-11T23:31:52.639Z,78.79
2019-02-11T23:34:20.897Z,78.97
2019-02-11T23:36:49.204Z,78.96
2019-02-11T23:39:17.655Z,79.47
2019-02-11T23:41:45.957Z,78.84
2019-02-11T23:44:15.015Z,77.69
2019-02-11T23:46:43.300Z,77.74
2019-02-11T23:49:13.202Z,77.92
2019-02-11T23:51:41.502Z,77.53
2019-02-11T23:54:09.807Z,78.28
2019-02-11T23:56:38.282Z,78.47
2019-02-11T23:59:06.601Z,78.64
